Time;durP1;ratioP1;P1;durP2;ratioP2;P2;SDS_P1;SDS_P2;PMS_P1;PMS_P2;Temp;Humidity;BMP_temperature;BMP_pressure;BME280_temperature;BME280_humidity;BME280_pressure;Samples;Min_cycle;Max_cycle;Signal;HPM_P1;HPM_P2
2022/07/20 00:01:07;;;;;;;364.52;347.45;;;22.60;85.90;;;;;;5086324;28;20404;-61
2022/07/20 00:03:33;;;;;;;377.33;359.55;;;22.60;85.90;;;;;;5092416;28;20051;-61
2022/07/20 00:05:58;;;;;;;365.25;348.35;;;22.60;86.00;;;;;;5092452;28;20044;-61
2022/07/20 00:11:21;;;;;;;380.55;362.65;;;22.60;85.00;;;;;;5071911;28;20545;-60
2022/07/20 00:13:49;;;;;;;395.92;377.17;;;22.60;84.50;;;;;;5072133;28;20470;-61
2022/07/20 00:16:15;;;;;;;336.40;321.10;;;22.60;84.00;;;;;;5071414;28;20489;-61
2022/07/20 00:18:40;;;;;;;335.05;319.77;;;22.60;83.70;;;;;;5085928;28;20032;-61
2022/07/20 00:21:06;;;;;;;357.98;341.30;;;22.60;83.70;;;;;;5084314;28;20048;-60
2022/07/20 00:23:32;;;;;;;342.73;326.70;;;22.60;83.60;;;;;;5056681;28;20079;-60
2022/07/20 00:25:57;;;;;;;376.83;358.85;;;22.60;83.50;;;;;;5076591;28;20114;-61
2022/07/20 00:28:23;;;;;;;380.50;362.45;;;22.60;83.70;;;;;;5095705;28;20090;-61
2022/07/20 00:30:49;;;;;;;416.95;396.75;;;22.50;83.40;;;;;;5094874;28;20048;-61
2022/07/20 00:33:15;;;;;;;395.10;376.45;;;22.50;83.20;;;;;;5068592;28;20041;-61
2022/07/20 00:35:40;;;;;;;421.27;401.00;;;22.50;83.20;;;;;;5063097;28;20110;-60
2022/07/20 00:38:06;;;;;;;415.13;395.30;;;22.40;83.10;;;;;;5074810;28;20045;-60
2022/07/20 00:40:32;;;;;;;411.60;391.70;;;22.40;83.10;;;;;;5075668;28;20052;-60
2022/07/20 00:42:57;;;;;;;367.55;349.13;;;22.40;83.00;;;;;;5055135;28;20053;-61
2022/07/20 00:45:23;;;;;;;423.10;402.50;;;22.40;83.20;;;;;;5054462;28;20048;-61
2022/07/20 00:47:51;;;;;;;422.30;401.50;;;22.40;83.30;;;;;;5054976;28;20422;-61
2022/07/20 00:50:17;;;;;;;403.73;384.48;;;22.40;83.30;;;;;;5054471;28;20055;-61
2022/07/20 00:52:43;;;;;;;370.17;352.55;;;22.40;83.60;;;;;;5054671;28;20060;-61
2022/07/20 00:55:09;;;;;;;408.40;388.95;;;22.30;84.20;;;;;;5055357;28;20052;-61
2022/07/20 00:57:35;;;;;;;393.83;375.02;;;22.30;84.90;;;;;;5054365;28;20041;-61
2022/07/20 01:00:04;;;;;;;438.63;416.38;;;22.20;85.50;;;;;;5054851;28;20045;-61
2022/07/20 01:02:30;;;;;;;397.08;377.85;;;22.10;86.20;;;;;;5054564;28;20208;-61
2022/07/20 01:04:56;;;;;;;426.52;405.63;;;22.00;86.80;;;;;;5054326;28;20164;-61
2022/07/20 01:07:22;;;;;;;374.48;356.80;;;21.90;87.60;;;;;;5054257;28;20128;-61
2022/07/20 01:09:48;;;;;;;430.25;408.73;;;21.70;88.30;;;;;;5054455;28;20052;-61
2022/07/20 01:12:13;;;;;;;438.80;416.95;;;21.50;89.20;;;;;;5053701;28;20415;-61
2022/07/20 01:14:39;;;;;;;543.67;514.28;;;21.40;89.80;;;;;;5036417;28;20057;-61
2022/07/20 01:17:05;;;;;;;498.92;473.23;;;21.20;90.40;;;;;;5054785;28;20041;-61
2022/07/20 01:19:31;;;;;;;417.40;397.00;;;21.10;91.30;;;;;;5049126;28;20052;-61
2022/07/20 01:21:57;;;;;;;420.83;400.52;;;20.90;91.50;;;;;;5053966;28;20049;-61
2022/07/20 01:24:22;;;;;;;414.15;394.17;;;20.80;91.80;;;;;;5054702;28;20566;-61
2022/07/20 01:26:48;;;;;;;449.73;427.42;;;20.60;92.10;;;;;;5036035;28;20498;-61
2022/07/20 01:29:14;;;;;;;443.30;421.50;;;20.60;92.30;;;;;;5053710;28;20049;-61
2022/07/20 01:31:41;;;;;;;496.90;470.92;;;20.50;92.40;;;;;;5053688;28;20543;-61
2022/07/20 01:34:07;;;;;;;529.47;501.70;;;20.50;92.50;;;;;;5053532;28;20045;-61
2022/07/20 01:36:32;;;;;;;587.63;553.85;;;20.40;92.50;;;;;;5054130;28;20146;-61
2022/07/20 01:38:58;;;;;;;532.88;504.55;;;20.30;92.80;;;;;;5035248;28;20053;-61
2022/07/20 01:41:24;;;;;;;561.75;530.40;;;20.30;93.00;;;;;;5054116;28;20053;-61
2022/07/20 01:43:50;;;;;;;659.45;619.28;;;20.30;93.00;;;;;;5054128;28;20057;-61
2022/07/20 01:46:16;;;;;;;508.00;481.42;;;20.40;92.80;;;;;;5053081;28;20108;-61
2022/07/20 01:48:42;;;;;;;528.95;500.55;;;20.40;92.50;;;;;;5054017;28;20057;-61
2022/07/20 01:51:08;;;;;;;571.28;539.70;;;20.40;92.40;;;;;;5053268;28;20033;-61
2022/07/20 01:53:34;;;;;;;540.75;512.03;;;20.50;92.20;;;;;;5053428;28;20494;-61
2022/07/20 01:55:59;;;;;;;560.55;529.05;;;20.60;92.30;;;;;;5053839;28;20041;-61
2022/07/20 01:58:25;;;;;;;654.78;614.35;;;20.70;92.50;;;;;;5053686;28;20491;-61
2022/07/20 02:00:51;;;;;;;503.23;476.33;;;20.80;92.20;;;;;;5053155;28;20049;-61
2022/07/20 02:03:17;;;;;;;682.35;639.38;;;20.80;91.90;;;;;;5053316;28;20411;-61
2022/07/20 02:05:43;;;;;;;539.60;510.77;;;20.80;92.10;;;;;;5053404;28;20045;-61
2022/07/20 02:08:09;;;;;;;587.40;554.13;;;20.90;92.50;;;;;;5053007;28;20479;-61
2022/07/20 02:10:35;;;;;;;610.78;575.33;;;20.90;92.80;;;;;;5053836;28;20049;-61
2022/07/20 02:13:01;;;;;;;631.22;593.88;;;20.90;93.00;;;;;;5052608;28;20502;-61
2022/07/20 02:18:12;;;;;;;641.20;603.40;;;20.90;93.80;;;;;;5053069;28;20040;-61
2022/07/20 02:20:39;;;;;;;695.85;652.10;;;20.80;94.10;;;;;;5053383;28;20047;-61
2022/07/20 02:23:06;;;;;;;690.85;647.72;;;20.80;94.60;;;;;;5052535;28;20044;-61
2022/07/20 02:25:33;;;;;;;696.45;652.75;;;20.70;94.70;;;;;;5035841;28;20041;-61
2022/07/20 02:27:58;;;;;;;738.67;690.97;;;20.60;94.60;;;;;;5052945;28;20083;-61
2022/07/20 02:30:24;;;;;;;714.58;669.67;;;20.50;95.10;;;;;;5052059;28;20041;-61
2022/07/20 02:32:50;;;;;;;617.38;581.47;;;20.40;95.30;;;;;;5053088;28;20411;-61
2022/07/20 02:35:16;;;;;;;651.33;612.45;;;20.40;95.40;;;;;;5052384;28;20056;-61
2022/07/20 02:37:42;;;;;;;638.20;600.30;;;20.30;95.40;;;;;;5053409;28;20482;-61
2022/07/20 02:40:08;;;;;;;686.55;643.25;;;20.20;95.80;;;;;;5034794;28;20044;-61
2022/07/20 02:42:34;;;;;;;633.80;596.55;;;20.10;96.10;;;;;;5051766;28;20059;-61
2022/07/20 02:45:00;;;;;;;668.60;627.88;;;20.10;96.30;;;;;;5053119;28;20045;-60
2022/07/20 02:47:26;;;;;;;604.92;570.30;;;20.00;96.50;;;;;;5048268;28;20593;-60
2022/07/20 02:49:51;;;;;;;649.25;610.20;;;20.00;96.00;;;;;;5051833;28;20053;-60
2022/07/20 02:52:17;;;;;;;671.42;629.72;;;20.00;95.40;;;;;;5053064;28;20107;-61
2022/07/20 02:54:43;;;;;;;613.05;576.65;;;19.90;95.00;;;;;;5052925;28;20096;-61
2022/07/20 02:57:09;;;;;;;692.47;649.17;;;19.90;95.10;;;;;;5059878;28;20051;-61
2022/07/20 02:59:35;;;;;;;697.83;654.53;;;19.90;95.60;;;;;;5072864;28;20052;-61
2022/07/20 03:02:00;;;;;;;691.22;647.53;;;19.90;96.20;;;;;;5063168;28;20045;-60
2022/07/20 03:04:26;;;;;;;723.65;677.20;;;19.90;96.40;;;;;;5052186;28;20076;-60
2022/07/20 03:06:52;;;;;;;660.53;620.03;;;19.80;96.70;;;;;;5049436;28;20063;-61
2022/07/20 03:09:18;;;;;;;658.80;619.17;;;19.80;96.80;;;;;;5058145;28;20051;-61
2022/07/20 03:11:43;;;;;;;669.38;628.33;;;19.80;96.90;;;;;;5051675;28;20387;-61
2022/07/20 03:14:09;;;;;;;690.40;647.20;;;19.80;96.90;;;;;;5052161;28;20045;-61
2022/07/20 03:16:35;;;;;;;739.75;691.78;;;19.80;97.30;;;;;;5034290;28;20049;-61
2022/07/20 03:19:00;;;;;;;709.85;663.92;;;19.90;97.60;;;;;;5052173;28;20049;-61
2022/07/20 03:21:26;;;;;;;667.40;625.95;;;19.90;98.10;;;;;;5052184;28;20118;-61
2022/07/20 03:23:53;;;;;;;595.42;558.83;;;19.90;97.90;;;;;;5061704;28;20406;-61
2022/07/20 03:26:21;;;;;;;673.97;631.03;;;19.90;98.00;;;;;;5072039;28;20028;-61
2022/07/20 03:28:47;;;;;;;676.47;634.08;;;19.90;98.10;;;;;;5072433;28;20078;-61
2022/07/20 03:31:13;;;;;;;712.03;666.58;;;19.80;98.00;;;;;;5072472;28;20041;-61
2022/07/20 03:33:39;;;;;;;686.58;643.60;;;19.70;97.90;;;;;;5054329;28;20056;-61
2022/07/20 03:36:05;;;;;;;746.22;697.97;;;19.70;97.80;;;;;;5052294;28;20376;-61
2022/07/20 03:38:31;;;;;;;749.08;700.05;;;19.70;97.90;;;;;;5051938;28;20120;-61
2022/07/20 03:40:57;;;;;;;720.20;674.30;;;;;;;;;;5054634;28;20124;-61
2022/07/20 03:43:25;;;;;;;722.92;676.67;;;19.50;97.90;;;;;;5071966;28;20049;-60
2022/07/20 03:45:52;;;;;;;724.42;677.60;;;19.50;98.20;;;;;;5081493;28;20083;-61
2022/07/20 03:48:19;;;;;;;711.70;665.70;;;19.50;98.40;;;;;;5079876;28;20091;-61
2022/07/20 03:50:46;;;;;;;741.10;692.38;;;19.50;98.40;;;;;;5071509;28;20517;-61
2022/07/20 03:53:12;;;;;;;714.88;668.33;;;19.40;98.60;;;;;;5071887;28;20051;-61
2022/07/20 03:55:38;;;;;;;753.20;702.30;;;19.40;98.20;;;;;;5074901;28;20115;-61
2022/07/20 03:58:04;;;;;;;732.65;684.85;;;19.40;98.40;;;;;;5075675;28;20128;-60
2022/07/20 04:00:30;;;;;;;755.40;704.80;;;19.40;98.70;;;;;;5075494;28;20048;-60
2022/07/20 04:02:56;;;;;;;1667.55;907.17;;;19.50;98.70;;;;;;5076436;28;20052;-60
2022/07/20 04:05:23;;;;;;;667.80;626.28;;;19.50;98.60;;;;;;5075700;28;20048;-61
2022/07/20 04:07:49;;;;;;;692.75;648.25;;;19.60;98.20;;;;;;5074959;28;20051;-61
2022/07/20 04:10:15;;;;;;;1999.90;999.90;;;19.70;98.10;;;;;;5076070;28;20390;-61
2022/07/20 04:12:41;;;;;;;443.52;411.00;;;19.70;98.20;;;;;;5075353;28;20041;-61
2022/07/20 04:15:08;;;;;;;737.55;688.33;;;19.80;98.40;;;;;;5075214;28;20059;-61
2022/07/20 04:17:34;;;;;;;635.63;595.65;;;19.80;99.30;;;;;;5089994;28;20048;-61
2022/07/20 04:19:59;;;;;;;778.22;723.67;;;19.90;99.90;;;;;;5096021;28;20059;-61
2022/07/20 04:22:25;;;;;;;661.35;621.47;;;19.80;99.90;;;;;;5095552;28;20044;-61
2022/07/20 04:24:51;;;;;;;574.13;541.33;;;19.90;99.70;;;;;;5076890;28;20068;-61
2022/07/20 04:27:17;;;;;;;789.65;736.53;;;19.90;99.50;;;;;;5095358;28;20050;-61
2022/07/20 04:29:42;;;;;;;762.17;711.83;;;19.90;99.50;;;;;;5095214;28;20181;-61
2022/07/20 04:32:09;;;;;;;681.70;638.40;;;19.90;99.70;;;;;;5093541;28;20090;-61
2022/07/20 04:34:34;;;;;;;728.08;679.33;;;19.90;99.80;;;;;;5083719;28;20067;-61
2022/07/20 04:37:00;;;;;;;660.22;616.08;;;19.90;99.90;;;;;;5094972;28;20044;-61
2022/07/20 04:39:26;;;;;;;707.50;660.35;;;19.90;99.90;;;;;;5095960;28;20409;-61
2022/07/20 04:41:52;;;;;;;586.35;549.35;;;19.90;99.90;;;;;;5080490;28;20047;-61
2022/07/20 04:44:18;;;;;;;607.08;568.75;;;20.00;99.90;;;;;;5072606;28;20048;-61
2022/07/20 04:46:44;;;;;;;569.90;536.53;;;20.00;99.90;;;;;;5095516;28;20043;-61
2022/07/20 04:49:10;;;;;;;764.72;711.55;;;20.00;99.90;;;;;;5074426;28;20375;-61
2022/07/20 04:51:36;;;;;;;755.92;705.92;;;20.10;99.90;;;;;;5074680;28;20044;-61
2022/07/20 04:54:02;;;;;;;790.60;736.60;;;20.10;99.50;;;;;;5075353;28;20046;-61
2022/07/20 04:56:27;;;;;;;727.28;680.50;;;20.20;99.60;;;;;;5074128;28;20084;-61
2022/07/20 04:58:54;;;;;;;696.70;652.67;;;20.20;99.40;;;;;;5075221;28;20076;-61
2022/07/20 05:01:22;;;;;;;698.25;653.13;;;20.30;99.40;;;;;;5074736;28;20041;-60
2022/07/20 05:03:48;;;;;;;1700.07;935.90;;;20.30;99.20;;;;;;5073741;28;20127;-61
2022/07/20 05:06:14;;;;;;;823.42;766.70;;;20.40;99.00;;;;;;5073744;28;20490;-61
2022/07/20 05:08:40;;;;;;;844.75;786.10;;;20.40;98.90;;;;;;5074800;28;20055;-61
2022/07/20 05:11:06;;;;;;;760.95;709.80;;;20.50;98.80;;;;;;5091368;28;20044;-61
2022/07/20 05:13:31;;;;;;;748.88;697.75;;;20.60;98.80;;;;;;5082008;28;20052;-61
2022/07/20 05:15:57;;;;;;;557.42;519.97;;;20.70;99.00;;;;;;5074953;28;20033;-61
2022/07/20 05:18:23;;;;;;;1999.90;999.90;;;20.70;99.40;;;;;;5078442;28;20044;-61
2022/07/20 05:20:49;;;;;;;1644.53;884.15;;;20.80;99.30;;;;;;5083149;28;20037;-61
2022/07/20 05:23:14;;;;;;;1999.90;999.90;;;20.90;99.30;;;;;;5074015;28;20040;-61
2022/07/20 05:25:40;;;;;;;1690.20;927.08;;;21.00;99.20;;;;;;5072438;28;20500;-61
2022/07/20 05:28:07;;;;;;;1999.90;999.90;;;21.10;99.10;;;;;;5076012;28;20446;-61
2022/07/20 05:30:33;;;;;;;1999.90;999.90;;;21.30;99.00;;;;;;5073578;28;20087;-60
2022/07/20 05:32:58;;;;;;;774.45;721.80;;;21.40;99.00;;;;;;5072727;28;20076;-61
2022/07/20 05:35:24;;;;;;;710.67;665.38;;;21.50;98.70;;;;;;5071235;28;20051;-61
2022/07/20 05:37:50;;;;;;;604.58;569.03;;;21.70;98.60;;;;;;5075168;28;20474;-61
2022/07/20 05:40:17;;;;;;;584.65;551.03;;;21.90;98.50;;;;;;5073386;28;20047;-61
2022/07/20 05:42:42;;;;;;;381.00;357.92;;;22.10;98.60;;;;;;5056938;28;20057;-61
2022/07/20 05:45:08;;;;;;;354.50;337.08;;;22.20;98.50;;;;;;5059475;28;20183;-61
2022/07/20 05:47:34;;;;;;;386.38;367.55;;;22.40;98.00;;;;;;5066957;28;20045;-61
2022/07/20 05:50:00;;;;;;;433.45;411.73;;;22.50;97.80;;;;;;5053762;28;20103;-61
2022/07/20 05:52:26;;;;;;;414.80;393.25;;;22.70;98.00;;;;;;5051959;28;20077;-61
2022/07/20 05:54:51;;;;;;;457.35;432.83;;;22.90;97.70;;;;;;5052622;28;20051;-61
2022/07/20 05:57:17;;;;;;;339.98;324.10;;;23.00;97.30;;;;;;5053963;28;20037;-61
2022/07/20 05:59:43;;;;;;;289.08;275.65;;;23.20;96.60;;;;;;5053422;28;20067;-61
2022/07/20 06:02:09;;;;;;;270.52;258.30;;;23.40;96.00;;;;;;5053537;28;20094;-60
2022/07/20 06:04:37;;;;;;;217.68;207.77;;;23.60;95.30;;;;;;5053727;28;20053;-60
2022/07/20 06:07:03;;;;;;;225.75;215.50;;;23.80;94.80;;;;;;5053076;28;20049;-61
2022/07/20 06:09:29;;;;;;;169.70;161.98;;;23.90;94.50;;;;;;5053730;28;20494;-61
2022/07/20 06:11:55;;;;;;;161.90;154.98;;;24.10;93.80;;;;;;5056447;28;20033;-61
2022/07/20 06:14:21;;;;;;;127.53;121.68;;;24.30;93.50;;;;;;5052817;28;20410;-61
2022/07/20 06:16:47;;;;;;;158.98;151.73;;;24.40;93.10;;;;;;5035854;28;20040;-61
2022/07/20 06:19:12;;;;;;;159.98;152.98;;;24.60;92.20;;;;;;5052675;28;20056;-61
2022/07/20 06:21:38;;;;;;;150.98;144.23;;;24.80;91.80;;;;;;5067947;28;20051;-61
2022/07/20 06:24:04;;;;;;;134.65;128.75;;;24.90;91.00;;;;;;5073482;28;20468;-61
2022/07/20 06:26:30;;;;;;;116.47;111.20;;;25.10;90.70;;;;;;5073260;28;20505;-60
2022/07/20 06:28:56;;;;;;;176.18;167.60;;;25.30;89.70;;;;;;5072001;28;20048;-60
2022/07/20 06:31:22;;;;;;;166.77;159.10;;;25.50;88.80;;;;;;5073154;28;20048;-61
2022/07/20 06:33:48;;;;;;;95.32;90.75;;;25.60;88.30;;;;;;5056875;28;20036;-61
2022/07/20 06:36:16;;;;;;;126.97;121.15;;;25.80;86.00;;;;;;5052717;28;20475;-61
2022/07/20 06:38:42;;;;;;;77.47;73.75;;;25.90;85.90;;;;;;5039716;28;20517;-61
2022/07/20 06:41:08;;;;;;;79.20;75.20;;;26.10;83.30;;;;;;5076871;28;20063;-61
2022/07/20 06:43:33;;;;;;;79.80;76.18;;;26.20;83.20;;;;;;5092446;28;20052;-60
2022/07/20 06:45:59;;;;;;;83.75;79.78;;;26.40;82.70;;;;;;5089658;28;20039;-61
2022/07/20 06:48:25;;;;;;;58.33;55.38;;;26.50;81.60;;;;;;5073165;28;20040;-61
2022/07/20 06:50:51;;;;;;;67.22;63.88;;;26.60;78.60;;;;;;5071796;28;20044;-61
2022/07/20 06:53:16;;;;;;;68.68;65.38;;;26.70;77.50;;;;;;5073189;28;20048;-61
2022/07/20 06:55:43;;;;;;;58.90;53.97;;;26.80;77.60;;;;;;5071785;28;20492;-61
2022/07/20 06:58:09;;;;;;;62.10;59.20;;;26.90;77.30;;;;;;5073098;28;20045;-61
2022/07/20 07:00:35;;;;;;;64.43;60.88;;;27.00;76.80;;;;;;5074702;28;20076;-61
2022/07/20 07:03:00;;;;;;;58.10;55.13;;;27.20;76.30;;;;;;5082252;28;20146;-60
2022/07/20 07:05:26;;;;;;;56.70;53.78;;;27.30;76.70;;;;;;5074298;28;20040;-61
2022/07/20 07:07:52;;;;;;;66.03;62.70;;;27.40;76.50;;;;;;5071996;28;20510;-61
2022/07/20 07:10:18;;;;;;;71.63;67.95;;;27.60;75.80;;;;;;5071347;28;20624;-61
2022/07/20 07:12:43;;;;;;;63.65;60.35;;;27.70;72.80;;;;;;5072847;28;20513;-61
2022/07/20 07:15:10;;;;;;;75.15;71.60;;;27.80;73.60;;;;;;5073577;28;20126;-61
2022/07/20 07:17:36;;;;;;;57.65;54.00;;;27.90;72.90;;;;;;5091757;28;20098;-61
2022/07/20 07:20:03;;;;;;;64.88;61.42;;;28.00;74.00;;;;;;5092846;28;20048;-61
2022/07/20 07:22:30;;;;;;;66.75;63.33;;;28.10;73.40;;;;;;5092397;28;20059;-61
2022/07/20 07:24:56;;;;;;;53.40;50.25;;;28.20;73.70;;;;;;5092002;28;20131;-61
2022/07/20 07:27:22;;;;;;;81.03;76.70;;;28.30;74.10;;;;;;5092699;28;20039;-61
2022/07/20 07:29:48;;;;;;;62.70;58.90;;;28.40;72.40;;;;;;5094097;28;20106;-61
2022/07/20 07:32:14;;;;;;;53.05;50.28;;;28.50;72.90;;;;;;5080301;28;20040;-61
2022/07/20 07:34:40;;;;;;;79.30;75.13;;;28.60;73.20;;;;;;5075913;28;20052;-61
2022/07/20 07:37:06;;;;;;;70.95;67.50;;;28.70;71.70;;;;;;5076518;28;20123;-61
2022/07/20 07:39:32;;;;;;;51.22;48.38;;;28.80;71.20;;;;;;5068250;28;20481;-61
2022/07/20 07:41:58;;;;;;;66.30;62.97;;;28.80;72.30;;;;;;5096669;28;20139;-61
2022/07/20 07:44:23;;;;;;;105.55;89.10;;;28.90;71.50;;;;;;5096787;28;20094;-61
2022/07/20 07:46:49;;;;;;;64.43;61.20;;;28.90;70.60;;;;;;5094966;28;20032;-61
2022/07/20 07:49:15;;;;;;;72.53;69.07;;;29.00;71.30;;;;;;5078273;28;20040;-61
2022/07/20 07:51:41;;;;;;;73.30;69.47;;;29.10;70.10;;;;;;5074910;28;20059;-61
2022/07/20 07:54:07;;;;;;;73.53;69.65;;;29.20;69.40;;;;;;5071010;28;20390;-61
2022/07/20 07:56:34;;;;;;;79.53;75.13;;;29.30;68.50;;;;;;5077104;28;20045;-61
2022/07/20 07:58:59;;;;;;;79.25;75.57;;;29.40;68.60;;;;;;5073181;28;20044;-61
2022/07/20 08:01:25;;;;;;;84.70;80.90;;;29.40;68.10;;;;;;5062101;28;20111;-61
2022/07/20 08:03:51;;;;;;;71.63;67.85;;;29.50;68.50;;;;;;5086388;28;20067;-61
2022/07/20 08:06:17;;;;;;;70.20;66.68;;;29.50;68.30;;;;;;5092255;28;20059;-61
2022/07/20 08:08:43;;;;;;;63.65;60.58;;;29.50;67.90;;;;;;5075523;28;20478;-61
2022/07/20 08:11:08;;;;;;;65.55;62.40;;;29.50;68.90;;;;;;5072851;28;20032;-61
2022/07/20 08:13:34;;;;;;;60.55;57.58;;;29.60;70.10;;;;;;5067894;28;20090;-61
2022/07/20 08:16:00;;;;;;;61.20;57.97;;;29.60;69.60;;;;;;5084676;28;20040;-61
2022/07/20 08:18:26;;;;;;;66.65;63.17;;;29.50;71.30;;;;;;5079719;28;20037;-61
2022/07/20 08:20:52;;;;;;;49.45;46.90;;;29.50;70.60;;;;;;5075732;28;20394;-61
2022/07/20 08:23:18;;;;;;;63.58;60.33;;;29.60;70.40;;;;;;5075306;28;20036;-61
2022/07/20 08:25:44;;;;;;;56.30;53.33;;;29.60;68.60;;;;;;5075292;28;20075;-61
2022/07/20 08:28:14;;;;;;;69.00;65.32;;;29.30;69.40;;;;;;5074798;28;20048;-61
2022/07/20 08:30:42;;;;;;;79.50;74.90;;;29.10;67.30;;;;;;5056913;28;20045;-61
2022/07/20 08:33:09;;;;;;;89.93;85.82;;;29.00;67.30;;;;;;5065172;28;20036;-61
2022/07/20 08:35:35;;;;;;;75.25;71.45;;;29.10;69.50;;;;;;5095081;28;20109;-61
2022/07/20 08:38:01;;;;;;;68.63;65.38;;;29.00;70.20;;;;;;5089389;28;20405;-61
2022/07/20 08:40:28;;;;;;;94.45;89.60;;;29.10;69.00;;;;;;5074970;28;20494;-61
2022/07/20 08:42:54;;;;;;;102.30;97.07;;;29.10;70.70;;;;;;5073741;28;20063;-61
2022/07/20 08:45:21;;;;;;;104.22;98.88;;;28.80;67.90;;;;;;5060502;28;20044;-61
2022/07/20 08:47:49;;;;;;;90.78;86.18;;;28.80;70.90;;;;;;5078881;28;20083;-61
2022/07/20 08:50:22;;;;;;;87.95;83.65;;;28.60;70.90;;;;;;5067218;28;20045;-61
2022/07/20 08:52:49;;;;;;;136.27;129.57;;;28.60;70.00;;;;;;5095111;28;20127;-61
2022/07/20 08:55:15;;;;;;;126.15;120.07;;;28.60;73.80;;;;;;5093665;28;20067;-61
2022/07/20 08:57:42;;;;;;;110.65;105.53;;;28.50;73.10;;;;;;5095354;28;20036;-61
2022/07/20 09:00:08;;;;;;;116.72;111.07;;;28.70;74.20;;;;;;5085330;28;20040;-61
2022/07/20 09:02:49;;;;;;;118.15;112.47;;;28.80;72.60;;;;;;5055846;28;20098;-61
2022/07/20 09:05:16;;;;;;;134.18;127.95;;;28.90;76.10;;;;;;5084948;28;20436;-61
2022/07/20 09:07:44;;;;;;;163.52;155.75;;;29.00;74.00;;;;;;5090046;28;20036;-61
2022/07/20 09:10:16;;;;;;;124.75;118.82;;;29.20;76.90;;;;;;5092102;28;20101;-61
2022/07/20 09:12:51;;;;;;;145.80;138.93;;;29.10;75.80;;;;;;5089212;28;20119;-61
2022/07/20 09:15:26;;;;;;;112.90;107.40;;;28.90;78.10;;;;;;5062807;28;20052;-61
2022/07/20 09:18:16;;;;;;;122.47;116.35;;;29.00;78.10;;;;;;5069935;28;20049;-61
2022/07/20 09:20:47;;;;;;;117.35;111.85;;;29.20;76.70;;;;;;5058540;28;20052;-61
2022/07/20 09:23:16;;;;;;;156.57;148.93;;;29.30;77.80;;;;;;5069552;28;20118;-61
2022/07/20 09:25:53;;;;;;;169.32;161.15;;;29.40;79.50;;;;;;5074459;28;20058;-61
2022/07/20 09:28:20;;;;;;;132.35;125.70;;;29.50;80.20;;;;;;5089098;28;23689;-61
2022/07/20 09:30:54;;;;;;;125.72;118.60;;;29.60;78.10;;;;;;5048815;28;20482;-61
2022/07/20 09:33:29;;;;;;;148.27;140.82;;;29.60;79.60;;;;;;5065042;28;20044;-61
2022/07/20 09:35:57;;;;;;;187.13;177.52;;;29.50;79.90;;;;;;5077585;28;20079;-61
2022/07/20 09:38:33;;;;;;;150.32;142.30;;;29.50;80.60;;;;;;5089541;28;20075;-61
2022/07/20 09:40:59;;;;;;;303.17;286.58;;;29.50;81.70;;;;;;5080053;28;20585;-61
2022/07/20 09:43:27;;;;;;;289.35;273.90;;;29.40;80.70;;;;;;5074161;28;20132;-60
2022/07/20 09:45:54;;;;;;;241.10;227.93;;;29.50;84.40;;;;;;5083046;28;20055;-60
2022/07/20 09:48:24;;;;;;;191.27;179.30;;;29.50;82.00;;;;;;5072644;28;20135;-61
2022/07/20 09:50:50;;;;;;;214.88;204.15;;;29.60;81.50;;;;;;5073266;28;20119;-60
2022/07/20 09:53:16;;;;;;;173.00;164.40;;;29.70;81.30;;;;;;5071405;28;20041;-60
2022/07/20 09:55:43;;;;;;;178.95;169.70;;;29.60;81.80;;;;;;5073733;28;20051;-61
2022/07/20 09:58:09;;;;;;;261.50;246.35;;;29.60;82.10;;;;;;5055922;28;20052;-61
2022/07/20 10:00:36;;;;;;;423.83;388.40;;;29.70;83.80;;;;;;5072959;28;20052;-61
2022/07/20 10:03:04;;;;;;;347.17;322.17;;;29.50;82.90;;;;;;5090356;28;20128;-61
2022/07/20 10:05:34;;;;;;;210.82;200.10;;;29.50;84.30;;;;;;5093522;28;20139;-62
2022/07/20 10:08:03;;;;;;;247.02;234.40;;;29.70;85.00;;;;;;5056998;28;20083;-61
2022/07/20 10:10:29;;;;;;;391.70;356.08;;;29.90;85.30;;;;;;5077970;28;20397;-61
2022/07/20 10:12:56;;;;;;;590.20;530.25;;;29.80;81.70;;;;;;5085274;28;20039;-61
2022/07/20 10:15:30;;;;;;;282.52;266.65;;;29.60;82.20;;;;;;5073322;28;20052;-61
2022/07/20 10:17:56;;;;;;;294.00;276.55;;;29.70;82.10;;;;;;5073669;28;20090;-61
2022/07/20 10:20:30;;;;;;;308.25;289.83;;;29.80;83.00;;;;;;5072118;28;20048;-61
2022/07/20 10:23:14;;;;;;;359.73;336.50;;;29.70;83.10;;;;;;5073429;28;20103;-62
2022/07/20 10:25:42;;;;;;;183.55;173.90;;;29.50;82.50;;;;;;5055421;28;20064;-61
2022/07/20 10:28:23;;;;;;;340.80;321.67;;;29.50;84.40;;;;;;5077039;28;20162;-61
2022/07/20 10:30:57;;;;;;;193.73;182.75;;;29.90;85.20;;;;;;5079584;28;20517;-61
2022/07/20 10:33:25;;;;;;;192.98;183.02;;;30.00;80.30;;;;;;5072430;28;20048;-61
2022/07/20 10:35:52;;;;;;;169.07;160.18;;;30.10;80.10;;;;;;5055314;28;20040;-61
2022/07/20 10:38:20;;;;;;;230.68;218.80;;;30.50;79.70;;;;;;5072557;28;20048;-61
2022/07/20 10:44:21;;;;;;;222.98;211.70;;;30.50;77.00;;;;;;5073087;28;20114;-61
2022/07/20 10:46:48;;;;;;;311.10;290.85;;;31.00;76.80;;;;;;5077523;28;20045;-61
2022/07/20 10:49:15;;;;;;;226.85;213.68;;;31.20;73.50;;;;;;5072483;28;20098;-61
2022/07/20 10:51:41;;;;;;;186.18;176.68;;;31.20;71.00;;;;;;5072854;28;20056;-61
2022/07/20 10:54:31;;;;;;;122.88;116.68;;;31.10;72.30;;;;;;5072671;28;20479;-61
2022/07/20 10:56:58;;;;;;;163.73;155.27;;;31.50;71.80;;;;;;5069798;28;20041;-61
2022/07/20 10:59:24;;;;;;;148.07;140.60;;;31.80;71.00;;;;;;5054026;28;20133;-61
2022/07/20 11:01:51;;;;;;;151.98;144.02;;;31.90;70.10;;;;;;5071217;28;20514;-61
2022/07/20 11:04:17;;;;;;;230.85;212.65;;;31.90;69.70;;;;;;5072898;28;20127;-61
2022/07/20 11:06:43;;;;;;;147.77;140.30;;;31.50;68.70;;;;;;5071575;28;20107;-61
2022/07/20 11:09:09;;;;;;;210.23;199.52;;;31.40;69.70;;;;;;5070069;28;20471;-61
2022/07/20 11:11:36;;;;;;;208.18;197.60;;;31.50;68.70;;;;;;5072295;28;20059;-61
2022/07/20 11:14:05;;;;;;;123.00;116.43;;;31.20;68.20;;;;;;5071327;28;20123;-61
2022/07/20 11:16:32;;;;;;;132.35;125.18;;;31.40;68.80;;;;;;5069214;28;20072;-61
2022/07/20 11:19:00;;;;;;;121.55;114.90;;;31.60;68.10;;;;;;5071955;28;20036;-61
2022/07/20 11:21:29;;;;;;;145.77;138.25;;;31.30;70.30;;;;;;5071905;28;20040;-61
2022/07/20 11:23:55;;;;;;;209.70;198.77;;;31.60;69.20;;;;;;5072088;28;20048;-61
2022/07/20 11:26:21;;;;;;;169.88;158.93;;;31.70;67.00;;;;;;5072765;28;20094;-61
2022/07/20 11:28:49;;;;;;;128.98;121.80;;;31.50;68.30;;;;;;5072564;28;20180;-61
2022/07/20 11:31:17;;;;;;;97.72;92.45;;;31.40;66.80;;;;;;5086117;28;20044;-61
2022/07/20 11:33:47;;;;;;;114.07;107.82;;;31.50;68.00;;;;;;5076426;28;20123;-61
2022/07/20 11:36:16;;;;;;;110.03;104.28;;;32.00;67.60;;;;;;5072152;28;20124;-61
2022/07/20 11:38:45;;;;;;;128.73;122.13;;;32.10;67.70;;;;;;5071419;28;20044;-61
2022/07/20 11:41:14;;;;;;;92.90;87.93;;;32.30;68.60;;;;;;5072318;28;20106;-62
2022/07/20 11:43:40;;;;;;;111.78;105.85;;;32.50;67.70;;;;;;5068577;28;20082;-61
2022/07/20 11:46:16;;;;;;;142.88;135.75;;;32.70;65.40;;;;;;5065984;28;20040;-61
2022/07/20 11:48:44;;;;;;;114.22;108.57;;;32.70;63.70;;;;;;5076991;28;20127;-61
2022/07/20 11:51:11;;;;;;;145.45;137.57;;;32.70;64.20;;;;;;5084350;28;20478;-61
2022/07/20 11:53:40;;;;;;;120.55;114.10;;;32.70;63.10;;;;;;5077064;28;20111;-61
2022/07/20 11:56:12;;;;;;;86.40;81.70;;;32.60;64.10;;;;;;5091371;28;20056;-61
2022/07/20 11:58:39;;;;;;;144.75;137.57;;;32.70;65.30;;;;;;5053096;28;20052;-61
2022/07/20 12:01:08;;;;;;;80.85;76.43;;;32.70;63.10;;;;;;5072096;28;20040;-61
2022/07/20 12:03:38;;;;;;;112.95;107.22;;;32.50;64.90;;;;;;5067057;28;20049;-61
2022/07/20 12:06:14;;;;;;;141.00;134.07;;;32.50;62.80;;;;;;5080731;28;20036;-62
2022/07/20 12:08:41;;;;;;;86.80;82.00;;;32.50;62.60;;;;;;5082566;28;20055;-61
2022/07/20 12:11:09;;;;;;;82.57;78.20;;;32.90;63.10;;;;;;5072003;28;20398;-61
2022/07/20 12:13:50;;;;;;;116.88;111.15;;;33.30;63.40;;;;;;5070912;28;20495;-61
2022/07/20 12:16:17;;;;;;;89.95;84.18;;;33.50;62.20;;;;;;5094107;28;20393;-61
2022/07/20 12:18:45;;;;;;;133.13;126.88;;;33.20;61.90;;;;;;5078120;28;20056;-61